<?xml version="1.0" encoding="UTF-8" standalone="no" ?>
<gpx xmlns="http://www.topografix.com/GPX/1/1" xmlns:xsi="http://www.w3.org/2001/XMLSchema-instance" xsi:schemaLocation="http://www.topografix.com/GPX/1/1 http://www.topografix.com/GPX/1/1/gpx.xsd" version="1.1" creator="VisuGPX - https://www.visugpx.com">
  <metadata>
    <name>Quend - le sentier du Royan</name>
    <desc><![CDATA[Randonnée de 7,5km en boucle]]></desc>
  </metadata>
  <trk>
    <name><![CDATA[Quend sentier du Royon_R]]></name>
    <trkseg>
      <trkpt lat="50.32469" lon="1.54785">
        <ele>12.63</ele>
        <time>2013-04-30T08:07:04Z</time>
      </trkpt>
      <trkpt lat="50.32462" lon="1.54808">
        <ele>12.15</ele>
        <time>2013-04-30T08:07:20Z</time>
      </trkpt>
      <trkpt lat="50.32458" lon="1.54818">
        <ele>12.15</ele>
        <time>2013-04-30T08:07:26Z</time>
      </trkpt>
      <trkpt lat="50.32456" lon="1.5482">
        <ele>12.15</ele>
        <time>2013-04-30T08:07:28Z</time>
      </trkpt>
      <trkpt lat="50.32452" lon="1.54828">
        <ele>12.15</ele>
        <time>2013-04-30T08:07:34Z</time>
      </trkpt>
      <trkpt lat="50.32446" lon="1.54837">
        <ele>11.67</ele>
        <time>2013-04-30T08:07:41Z</time>
      </trkpt>
      <trkpt lat="50.32445" lon="1.54843">
        <ele>11.67</ele>
        <time>2013-04-30T08:07:45Z</time>
      </trkpt>
      <trkpt lat="50.32455" lon="1.54851">
        <ele>12.15</ele>
        <time>2013-04-30T08:07:55Z</time>
      </trkpt>
      <trkpt lat="50.3247" lon="1.54855">
        <ele>12.15</ele>
        <time>2013-04-30T08:08:09Z</time>
      </trkpt>
      <trkpt lat="50.32484" lon="1.54859">
        <ele>12.63</ele>
        <time>2013-04-30T08:08:22Z</time>
      </trkpt>
      <trkpt lat="50.32491" lon="1.5486">
        <ele>13.6</ele>
        <time>2013-04-30T08:08:31Z</time>
      </trkpt>
      <trkpt lat="50.32499" lon="1.54862">
        <ele>14.08</ele>
        <time>2013-04-30T08:08:39Z</time>
      </trkpt>
      <trkpt lat="50.32503" lon="1.54862">
        <ele>14.56</ele>
        <time>2013-04-30T08:08:43Z</time>
      </trkpt>
      <trkpt lat="50.32512" lon="1.54874">
        <ele>15.52</ele>
        <time>2013-04-30T08:08:53Z</time>
      </trkpt>
      <trkpt lat="50.32521" lon="1.54898">
        <ele>15.04</ele>
        <time>2013-04-30T08:09:06Z</time>
      </trkpt>
      <trkpt lat="50.32529" lon="1.54915">
        <ele>14.56</ele>
        <time>2013-04-30T08:09:19Z</time>
      </trkpt>
      <trkpt lat="50.32536" lon="1.54937">
        <ele>13.12</ele>
        <time>2013-04-30T08:09:29Z</time>
      </trkpt>
      <trkpt lat="50.32544" lon="1.54945">
        <ele>12.63</ele>
        <time>2013-04-30T08:09:41Z</time>
      </trkpt>
      <trkpt lat="50.32546" lon="1.54946">
        <ele>12.63</ele>
        <time>2013-04-30T08:09:42Z</time>
      </trkpt>
      <trkpt lat="50.32547" lon="1.54946">
        <ele>12.63</ele>
        <time>2013-04-30T08:09:43Z</time>
      </trkpt>
      <trkpt lat="50.3256" lon="1.54945">
        <ele>13.6</ele>
        <time>2013-04-30T08:09:55Z</time>
      </trkpt>
      <trkpt lat="50.32579" lon="1.54947">
        <ele>12.15</ele>
        <time>2013-04-30T08:10:13Z</time>
      </trkpt>
      <trkpt lat="50.32589" lon="1.54955">
        <ele>10.23</ele>
        <time>2013-04-30T08:10:26Z</time>
      </trkpt>
      <trkpt lat="50.32605" lon="1.54968">
        <ele>7.83</ele>
        <time>2013-04-30T08:10:45Z</time>
      </trkpt>
      <trkpt lat="50.32619" lon="1.54974">
        <ele>8.79</ele>
        <time>2013-04-30T08:11:03Z</time>
      </trkpt>
      <trkpt lat="50.32638" lon="1.55015">
        <ele>8.79</ele>
        <time>2013-04-30T08:11:18Z</time>
      </trkpt>
      <trkpt lat="50.32661" lon="1.55055">
        <ele>10.23</ele>
        <time>2013-04-30T08:11:43Z</time>
      </trkpt>
      <trkpt lat="50.32676" lon="1.55098">
        <ele>12.15</ele>
        <time>2013-04-30T08:12:10Z</time>
      </trkpt>
      <trkpt lat="50.32702" lon="1.55104">
        <ele>12.15</ele>
        <time>2013-04-30T08:12:37Z</time>
      </trkpt>
      <trkpt lat="50.32712" lon="1.55086">
        <ele>10.71</ele>
        <time>2013-04-30T08:12:57Z</time>
      </trkpt>
      <trkpt lat="50.32729" lon="1.55081">
        <ele>8.31</ele>
        <time>2013-04-30T08:13:17Z</time>
      </trkpt>
      <trkpt lat="50.32745" lon="1.55082">
        <ele>7.35</ele>
        <time>2013-04-30T08:13:41Z</time>
      </trkpt>
      <trkpt lat="50.32748" lon="1.55084">
        <ele>6.87</ele>
        <time>2013-04-30T08:13:43Z</time>
      </trkpt>
      <trkpt lat="50.3275" lon="1.55073">
        <ele>7.35</ele>
        <time>2013-04-30T08:14:01Z</time>
      </trkpt>
      <trkpt lat="50.32748" lon="1.5507">
        <ele>7.83</ele>
        <time>2013-04-30T08:14:08Z</time>
      </trkpt>
      <trkpt lat="50.32732" lon="1.55098">
        <ele>8.31</ele>
        <time>2013-04-30T08:14:25Z</time>
      </trkpt>
      <trkpt lat="50.32735" lon="1.55112">
        <ele>8.31</ele>
        <time>2013-04-30T08:14:41Z</time>
      </trkpt>
      <trkpt lat="50.32734" lon="1.55122">
        <ele>8.79</ele>
        <time>2013-04-30T08:14:55Z</time>
      </trkpt>
      <trkpt lat="50.32741" lon="1.55122">
        <ele>8.79</ele>
        <time>2013-04-30T08:15:04Z</time>
      </trkpt>
      <trkpt lat="50.32783" lon="1.55086">
        <ele>8.79</ele>
        <time>2013-04-30T08:15:11Z</time>
      </trkpt>
      <trkpt lat="50.32792" lon="1.55082">
        <ele>8.79</ele>
        <time>2013-04-30T08:15:12Z</time>
      </trkpt>
      <trkpt lat="50.32844" lon="1.55071">
        <ele>7.83</ele>
        <time>2013-04-30T08:15:28Z</time>
      </trkpt>
      <trkpt lat="50.32875" lon="1.55069">
        <ele>9.75</ele>
        <time>2013-04-30T08:15:55Z</time>
      </trkpt>
      <trkpt lat="50.32907" lon="1.55076">
        <ele>11.67</ele>
        <time>2013-04-30T08:16:18Z</time>
      </trkpt>
      <trkpt lat="50.32908" lon="1.55078">
        <ele>11.19</ele>
        <time>2013-04-30T08:16:31Z</time>
      </trkpt>
      <trkpt lat="50.32924" lon="1.55087">
        <ele>10.23</ele>
        <time>2013-04-30T08:16:46Z</time>
      </trkpt>
      <trkpt lat="50.32939" lon="1.55095">
        <ele>10.71</ele>
        <time>2013-04-30T08:17:01Z</time>
      </trkpt>
      <trkpt lat="50.32949" lon="1.55114">
        <ele>11.19</ele>
        <time>2013-04-30T08:17:15Z</time>
      </trkpt>
      <trkpt lat="50.32954" lon="1.55123">
        <ele>11.19</ele>
        <time>2013-04-30T08:17:29Z</time>
      </trkpt>
      <trkpt lat="50.32962" lon="1.55136">
        <ele>11.67</ele>
        <time>2013-04-30T08:17:47Z</time>
      </trkpt>
      <trkpt lat="50.32976" lon="1.55151">
        <ele>10.23</ele>
        <time>2013-04-30T08:18:02Z</time>
      </trkpt>
      <trkpt lat="50.32995" lon="1.55163">
        <ele>9.75</ele>
        <time>2013-04-30T08:18:22Z</time>
      </trkpt>
      <trkpt lat="50.33013" lon="1.55176">
        <ele>10.23</ele>
        <time>2013-04-30T08:18:41Z</time>
      </trkpt>
      <trkpt lat="50.33031" lon="1.55191">
        <ele>9.75</ele>
        <time>2013-04-30T08:18:58Z</time>
      </trkpt>
      <trkpt lat="50.33033" lon="1.55221">
        <ele>8.79</ele>
        <time>2013-04-30T08:19:16Z</time>
      </trkpt>
      <trkpt lat="50.33036" lon="1.55256">
        <ele>7.35</ele>
        <time>2013-04-30T08:19:37Z</time>
      </trkpt>
      <trkpt lat="50.33035" lon="1.55261">
        <ele>7.35</ele>
        <time>2013-04-30T08:19:40Z</time>
      </trkpt>
      <trkpt lat="50.33033" lon="1.55286">
        <ele>7.83</ele>
        <time>2013-04-30T08:19:56Z</time>
      </trkpt>
      <trkpt lat="50.33026" lon="1.55311">
        <ele>8.79</ele>
        <time>2013-04-30T08:20:11Z</time>
      </trkpt>
      <trkpt lat="50.3302" lon="1.55335">
        <ele>8.31</ele>
        <time>2013-04-30T08:20:26Z</time>
      </trkpt>
      <trkpt lat="50.33011" lon="1.5536">
        <ele>8.79</ele>
        <time>2013-04-30T08:20:44Z</time>
      </trkpt>
      <trkpt lat="50.33007" lon="1.55374">
        <ele>9.27</ele>
        <time>2013-04-30T08:20:54Z</time>
      </trkpt>
      <trkpt lat="50.33006" lon="1.55377">
        <ele>9.75</ele>
        <time>2013-04-30T08:20:56Z</time>
      </trkpt>
      <trkpt lat="50.33005" lon="1.55379">
        <ele>9.75</ele>
        <time>2013-04-30T08:20:57Z</time>
      </trkpt>
      <trkpt lat="50.33004" lon="1.5538">
        <ele>9.75</ele>
        <time>2013-04-30T08:20:58Z</time>
      </trkpt>
      <trkpt lat="50.32998" lon="1.55394">
        <ele>10.71</ele>
        <time>2013-04-30T08:21:13Z</time>
      </trkpt>
      <trkpt lat="50.32987" lon="1.55414">
        <ele>12.15</ele>
        <time>2013-04-30T08:21:28Z</time>
      </trkpt>
      <trkpt lat="50.32982" lon="1.55428">
        <ele>13.12</ele>
        <time>2013-04-30T08:21:37Z</time>
      </trkpt>
      <trkpt lat="50.32985" lon="1.55445">
        <ele>14.08</ele>
        <time>2013-04-30T08:21:51Z</time>
      </trkpt>
      <trkpt lat="50.32983" lon="1.55479">
        <ele>15.04</ele>
        <time>2013-04-30T08:22:08Z</time>
      </trkpt>
      <trkpt lat="50.32984" lon="1.55514">
        <ele>14.56</ele>
        <time>2013-04-30T08:22:26Z</time>
      </trkpt>
      <trkpt lat="50.32987" lon="1.5555">
        <ele>14.08</ele>
        <time>2013-04-30T08:22:44Z</time>
      </trkpt>
      <trkpt lat="50.32986" lon="1.55581">
        <ele>12.15</ele>
        <time>2013-04-30T08:23:02Z</time>
      </trkpt>
      <trkpt lat="50.32977" lon="1.55605">
        <ele>10.71</ele>
        <time>2013-04-30T08:23:20Z</time>
      </trkpt>
      <trkpt lat="50.32973" lon="1.55616">
        <ele>10.71</ele>
        <time>2013-04-30T08:23:32Z</time>
      </trkpt>
      <trkpt lat="50.32971" lon="1.55629">
        <ele>10.23</ele>
        <time>2013-04-30T08:23:42Z</time>
      </trkpt>
      <trkpt lat="50.32971" lon="1.55631">
        <ele>9.75</ele>
        <time>2013-04-30T08:23:43Z</time>
      </trkpt>
      <trkpt lat="50.32974" lon="1.5564">
        <ele>9.75</ele>
        <time>2013-04-30T08:23:58Z</time>
      </trkpt>
      <trkpt lat="50.32982" lon="1.55662">
        <ele>8.31</ele>
        <time>2013-04-30T08:24:14Z</time>
      </trkpt>
      <trkpt lat="50.32983" lon="1.55664">
        <ele>8.31</ele>
        <time>2013-04-30T08:24:15Z</time>
      </trkpt>
      <trkpt lat="50.3299" lon="1.55674">
        <ele>8.31</ele>
        <time>2013-04-30T08:24:24Z</time>
      </trkpt>
      <trkpt lat="50.33008" lon="1.5569">
        <ele>9.27</ele>
        <time>2013-04-30T08:24:44Z</time>
      </trkpt>
      <trkpt lat="50.33025" lon="1.55701">
        <ele>10.23</ele>
        <time>2013-04-30T08:25:02Z</time>
      </trkpt>
      <trkpt lat="50.3304" lon="1.5571">
        <ele>11.67</ele>
        <time>2013-04-30T08:25:18Z</time>
      </trkpt>
      <trkpt lat="50.33057" lon="1.5573">
        <ele>14.08</ele>
        <time>2013-04-30T08:25:37Z</time>
      </trkpt>
      <trkpt lat="50.33063" lon="1.55749">
        <ele>15.52</ele>
        <time>2013-04-30T08:25:52Z</time>
      </trkpt>
      <trkpt lat="50.33069" lon="1.55761">
        <ele>15.04</ele>
        <time>2013-04-30T08:26:01Z</time>
      </trkpt>
      <trkpt lat="50.33081" lon="1.55783">
        <ele>15.04</ele>
        <time>2013-04-30T08:26:18Z</time>
      </trkpt>
      <trkpt lat="50.33096" lon="1.55808">
        <ele>16.48</ele>
        <time>2013-04-30T08:26:39Z</time>
      </trkpt>
      <trkpt lat="50.33093" lon="1.55818">
        <ele>16.96</ele>
        <time>2013-04-30T08:26:51Z</time>
      </trkpt>
      <trkpt lat="50.33089" lon="1.55836">
        <ele>18.4</ele>
        <time>2013-04-30T08:27:05Z</time>
      </trkpt>
      <trkpt lat="50.33088" lon="1.55852">
        <ele>16</ele>
        <time>2013-04-30T08:27:18Z</time>
      </trkpt>
      <trkpt lat="50.33088" lon="1.55854">
        <ele>16</ele>
        <time>2013-04-30T08:27:19Z</time>
      </trkpt>
      <trkpt lat="50.33091" lon="1.55863">
        <ele>16</ele>
        <time>2013-04-30T08:27:25Z</time>
      </trkpt>
      <trkpt lat="50.33091" lon="1.55864">
        <ele>16</ele>
        <time>2013-04-30T08:27:26Z</time>
      </trkpt>
      <trkpt lat="50.331" lon="1.55863">
        <ele>14.56</ele>
        <time>2013-04-30T08:27:37Z</time>
      </trkpt>
      <trkpt lat="50.33102" lon="1.5586">
        <ele>14.56</ele>
        <time>2013-04-30T08:27:48Z</time>
      </trkpt>
      <trkpt lat="50.3311" lon="1.55857">
        <ele>13.6</ele>
        <time>2013-04-30T08:28:05Z</time>
      </trkpt>
      <trkpt lat="50.3312" lon="1.55854">
        <ele>11.19</ele>
        <time>2013-04-30T08:28:16Z</time>
      </trkpt>
      <trkpt lat="50.33121" lon="1.55853">
        <ele>11.67</ele>
        <time>2013-04-30T08:28:17Z</time>
      </trkpt>
      <trkpt lat="50.33138" lon="1.55843">
        <ele>10.71</ele>
        <time>2013-04-30T08:28:36Z</time>
      </trkpt>
      <trkpt lat="50.33139" lon="1.55844">
        <ele>9.75</ele>
        <time>2013-04-30T08:28:37Z</time>
      </trkpt>
      <trkpt lat="50.3314" lon="1.5585">
        <ele>9.75</ele>
        <time>2013-04-30T08:28:42Z</time>
      </trkpt>
      <trkpt lat="50.3314" lon="1.55852">
        <ele>9.75</ele>
        <time>2013-04-30T08:28:43Z</time>
      </trkpt>
      <trkpt lat="50.3314" lon="1.55853">
        <ele>9.75</ele>
        <time>2013-04-30T08:28:44Z</time>
      </trkpt>
      <trkpt lat="50.3314" lon="1.55855">
        <ele>9.75</ele>
        <time>2013-04-30T08:28:45Z</time>
      </trkpt>
      <trkpt lat="50.3314" lon="1.55857">
        <ele>9.75</ele>
        <time>2013-04-30T08:28:46Z</time>
      </trkpt>
      <trkpt lat="50.3314" lon="1.55859">
        <ele>9.75</ele>
        <time>2013-04-30T08:28:47Z</time>
      </trkpt>
      <trkpt lat="50.3314" lon="1.55861">
        <ele>9.75</ele>
        <time>2013-04-30T08:28:48Z</time>
      </trkpt>
      <trkpt lat="50.33141" lon="1.55863">
        <ele>9.75</ele>
        <time>2013-04-30T08:28:49Z</time>
      </trkpt>
      <trkpt lat="50.33142" lon="1.55873">
        <ele>8.79</ele>
        <time>2013-04-30T08:29:00Z</time>
      </trkpt>
      <trkpt lat="50.33144" lon="1.55899">
        <ele>9.75</ele>
        <time>2013-04-30T08:29:14Z</time>
      </trkpt>
      <trkpt lat="50.33145" lon="1.55905">
        <ele>10.71</ele>
        <time>2013-04-30T08:29:27Z</time>
      </trkpt>
      <trkpt lat="50.33146" lon="1.55912">
        <ele>10.71</ele>
        <time>2013-04-30T08:29:35Z</time>
      </trkpt>
      <trkpt lat="50.33148" lon="1.55909">
        <ele>10.23</ele>
        <time>2013-04-30T08:29:49Z</time>
      </trkpt>
      <trkpt lat="50.33147" lon="1.55925">
        <ele>10.71</ele>
        <time>2013-04-30T08:30:05Z</time>
      </trkpt>
      <trkpt lat="50.33147" lon="1.55927">
        <ele>10.71</ele>
        <time>2013-04-30T08:30:06Z</time>
      </trkpt>
      <trkpt lat="50.33152" lon="1.55948">
        <ele>11.67</ele>
        <time>2013-04-30T08:30:20Z</time>
      </trkpt>
      <trkpt lat="50.33156" lon="1.55971">
        <ele>12.15</ele>
        <time>2013-04-30T08:30:34Z</time>
      </trkpt>
      <trkpt lat="50.33163" lon="1.55994">
        <ele>13.12</ele>
        <time>2013-04-30T08:30:49Z</time>
      </trkpt>
      <trkpt lat="50.33164" lon="1.56022">
        <ele>13.12</ele>
        <time>2013-04-30T08:31:05Z</time>
      </trkpt>
      <trkpt lat="50.33158" lon="1.56051">
        <ele>14.56</ele>
        <time>2013-04-30T08:31:21Z</time>
      </trkpt>
      <trkpt lat="50.33152" lon="1.56074">
        <ele>15.04</ele>
        <time>2013-04-30T08:31:36Z</time>
      </trkpt>
      <trkpt lat="50.33153" lon="1.56108">
        <ele>15.04</ele>
        <time>2013-04-30T08:31:54Z</time>
      </trkpt>
      <trkpt lat="50.33148" lon="1.5614">
        <ele>13.6</ele>
        <time>2013-04-30T08:32:13Z</time>
      </trkpt>
      <trkpt lat="50.33147" lon="1.56141">
        <ele>13.6</ele>
        <time>2013-04-30T08:32:14Z</time>
      </trkpt>
      <trkpt lat="50.33135" lon="1.56151">
        <ele>11.67</ele>
        <time>2013-04-30T08:32:29Z</time>
      </trkpt>
      <trkpt lat="50.33122" lon="1.56168">
        <ele>9.27</ele>
        <time>2013-04-30T08:32:44Z</time>
      </trkpt>
      <trkpt lat="50.33118" lon="1.56174">
        <ele>8.79</ele>
        <time>2013-04-30T08:32:51Z</time>
      </trkpt>
      <trkpt lat="50.33113" lon="1.56175">
        <ele>8.79</ele>
        <time>2013-04-30T08:32:55Z</time>
      </trkpt>
      <trkpt lat="50.33091" lon="1.56168">
        <ele>8.79</ele>
        <time>2013-04-30T08:33:13Z</time>
      </trkpt>
      <trkpt lat="50.33073" lon="1.56165">
        <ele>9.75</ele>
        <time>2013-04-30T08:33:27Z</time>
      </trkpt>
      <trkpt lat="50.33062" lon="1.56166">
        <ele>11.19</ele>
        <time>2013-04-30T08:33:41Z</time>
      </trkpt>
      <trkpt lat="50.33043" lon="1.56167">
        <ele>14.08</ele>
        <time>2013-04-30T08:33:58Z</time>
      </trkpt>
      <trkpt lat="50.33029" lon="1.56171">
        <ele>16.96</ele>
        <time>2013-04-30T08:34:13Z</time>
      </trkpt>
      <trkpt lat="50.33011" lon="1.56172">
        <ele>17.44</ele>
        <time>2013-04-30T08:34:30Z</time>
      </trkpt>
      <trkpt lat="50.33007" lon="1.56177">
        <ele>16.96</ele>
        <time>2013-04-30T08:34:35Z</time>
      </trkpt>
      <trkpt lat="50.32986" lon="1.56188">
        <ele>15.04</ele>
        <time>2013-04-30T08:34:54Z</time>
      </trkpt>
      <trkpt lat="50.32976" lon="1.56207">
        <ele>14.08</ele>
        <time>2013-04-30T08:35:09Z</time>
      </trkpt>
      <trkpt lat="50.32972" lon="1.56224">
        <ele>12.15</ele>
        <time>2013-04-30T08:35:21Z</time>
      </trkpt>
      <trkpt lat="50.32972" lon="1.56236">
        <ele>10.71</ele>
        <time>2013-04-30T08:35:29Z</time>
      </trkpt>
      <trkpt lat="50.32974" lon="1.56244">
        <ele>11.19</ele>
        <time>2013-04-30T08:35:33Z</time>
      </trkpt>
      <trkpt lat="50.32976" lon="1.56253">
        <ele>10.23</ele>
        <time>2013-04-30T08:35:38Z</time>
      </trkpt>
      <trkpt lat="50.32976" lon="1.56262">
        <ele>10.23</ele>
        <time>2013-04-30T08:35:45Z</time>
      </trkpt>
      <trkpt lat="50.3297" lon="1.56271">
        <ele>9.75</ele>
        <time>2013-04-30T08:36:00Z</time>
      </trkpt>
      <trkpt lat="50.32967" lon="1.56274">
        <ele>9.75</ele>
        <time>2013-04-30T08:36:12Z</time>
      </trkpt>
      <trkpt lat="50.32953" lon="1.5629">
        <ele>9.75</ele>
        <time>2013-04-30T08:36:29Z</time>
      </trkpt>
      <trkpt lat="50.32938" lon="1.56311">
        <ele>11.19</ele>
        <time>2013-04-30T08:36:47Z</time>
      </trkpt>
      <trkpt lat="50.32938" lon="1.56318">
        <ele>11.19</ele>
        <time>2013-04-30T08:37:04Z</time>
      </trkpt>
      <trkpt lat="50.32937" lon="1.56329">
        <ele>10.71</ele>
        <time>2013-04-30T08:37:23Z</time>
      </trkpt>
      <trkpt lat="50.32937" lon="1.5635">
        <ele>9.75</ele>
        <time>2013-04-30T08:37:34Z</time>
      </trkpt>
      <trkpt lat="50.32934" lon="1.56356">
        <ele>9.75</ele>
        <time>2013-04-30T08:37:45Z</time>
      </trkpt>
      <trkpt lat="50.32927" lon="1.56359">
        <ele>9.75</ele>
        <time>2013-04-30T08:37:53Z</time>
      </trkpt>
      <trkpt lat="50.32911" lon="1.56369">
        <ele>10.23</ele>
        <time>2013-04-30T08:38:10Z</time>
      </trkpt>
      <trkpt lat="50.32905" lon="1.564">
        <ele>9.75</ele>
        <time>2013-04-30T08:38:30Z</time>
      </trkpt>
      <trkpt lat="50.32904" lon="1.56404">
        <ele>9.75</ele>
        <time>2013-04-30T08:38:32Z</time>
      </trkpt>
      <trkpt lat="50.32902" lon="1.56418">
        <ele>9.75</ele>
        <time>2013-04-30T08:38:39Z</time>
      </trkpt>
      <trkpt lat="50.32904" lon="1.56443">
        <ele>9.27</ele>
        <time>2013-04-30T08:38:55Z</time>
      </trkpt>
      <trkpt lat="50.32903" lon="1.56444">
        <ele>9.27</ele>
        <time>2013-04-30T08:38:57Z</time>
      </trkpt>
      <trkpt lat="50.32891" lon="1.56459">
        <ele>11.19</ele>
        <time>2013-04-30T08:39:14Z</time>
      </trkpt>
      <trkpt lat="50.32882" lon="1.56479">
        <ele>11.19</ele>
        <time>2013-04-30T08:39:28Z</time>
      </trkpt>
      <trkpt lat="50.32866" lon="1.56488">
        <ele>12.15</ele>
        <time>2013-04-30T08:39:45Z</time>
      </trkpt>
      <trkpt lat="50.32855" lon="1.56483">
        <ele>11.67</ele>
        <time>2013-04-30T08:39:55Z</time>
      </trkpt>
      <trkpt lat="50.32837" lon="1.56486">
        <ele>11.19</ele>
        <time>2013-04-30T08:40:14Z</time>
      </trkpt>
      <trkpt lat="50.32819" lon="1.56478">
        <ele>13.12</ele>
        <time>2013-04-30T08:40:30Z</time>
      </trkpt>
      <trkpt lat="50.32818" lon="1.56478">
        <ele>13.12</ele>
        <time>2013-04-30T08:40:32Z</time>
      </trkpt>
      <trkpt lat="50.32806" lon="1.56478">
        <ele>13.6</ele>
        <time>2013-04-30T08:40:42Z</time>
      </trkpt>
      <trkpt lat="50.328" lon="1.56464">
        <ele>13.6</ele>
        <time>2013-04-30T08:40:53Z</time>
      </trkpt>
      <trkpt lat="50.32794" lon="1.56456">
        <ele>13.12</ele>
        <time>2013-04-30T08:41:02Z</time>
      </trkpt>
      <trkpt lat="50.32778" lon="1.56464">
        <ele>12.15</ele>
        <time>2013-04-30T08:41:18Z</time>
      </trkpt>
      <trkpt lat="50.32766" lon="1.56468">
        <ele>11.67</ele>
        <time>2013-04-30T08:41:30Z</time>
      </trkpt>
      <trkpt lat="50.32759" lon="1.56483">
        <ele>10.71</ele>
        <time>2013-04-30T08:41:42Z</time>
      </trkpt>
      <trkpt lat="50.32755" lon="1.5651">
        <ele>9.75</ele>
        <time>2013-04-30T08:41:57Z</time>
      </trkpt>
      <trkpt lat="50.32755" lon="1.56534">
        <ele>9.75</ele>
        <time>2013-04-30T08:42:11Z</time>
      </trkpt>
      <trkpt lat="50.32758" lon="1.56558">
        <ele>10.23</ele>
        <time>2013-04-30T08:42:25Z</time>
      </trkpt>
      <trkpt lat="50.32762" lon="1.56588">
        <ele>9.75</ele>
        <time>2013-04-30T08:42:42Z</time>
      </trkpt>
      <trkpt lat="50.32765" lon="1.56601">
        <ele>9.75</ele>
        <time>2013-04-30T08:42:58Z</time>
      </trkpt>
      <trkpt lat="50.32767" lon="1.56604">
        <ele>9.75</ele>
        <time>2013-04-30T08:43:00Z</time>
      </trkpt>
      <trkpt lat="50.3278" lon="1.56626">
        <ele>9.75</ele>
        <time>2013-04-30T08:43:15Z</time>
      </trkpt>
      <trkpt lat="50.32782" lon="1.56636">
        <ele>9.27</ele>
        <time>2013-04-30T08:43:29Z</time>
      </trkpt>
      <trkpt lat="50.32776" lon="1.56644">
        <ele>9.75</ele>
        <time>2013-04-30T08:43:42Z</time>
      </trkpt>
      <trkpt lat="50.32783" lon="1.56643">
        <ele>9.27</ele>
        <time>2013-04-30T08:43:56Z</time>
      </trkpt>
      <trkpt lat="50.32787" lon="1.56647">
        <ele>8.79</ele>
        <time>2013-04-30T08:44:09Z</time>
      </trkpt>
      <trkpt lat="50.32793" lon="1.5665">
        <ele>8.79</ele>
        <time>2013-04-30T08:44:19Z</time>
      </trkpt>
      <trkpt lat="50.32798" lon="1.56651">
        <ele>8.79</ele>
        <time>2013-04-30T08:44:25Z</time>
      </trkpt>
      <trkpt lat="50.32809" lon="1.56646">
        <ele>8.79</ele>
        <time>2013-04-30T08:44:36Z</time>
      </trkpt>
      <trkpt lat="50.32823" lon="1.56635">
        <ele>8.31</ele>
        <time>2013-04-30T08:44:50Z</time>
      </trkpt>
      <trkpt lat="50.32845" lon="1.5662">
        <ele>8.79</ele>
        <time>2013-04-30T08:45:08Z</time>
      </trkpt>
      <trkpt lat="50.32857" lon="1.56612">
        <ele>8.79</ele>
        <time>2013-04-30T08:45:24Z</time>
      </trkpt>
      <trkpt lat="50.32869" lon="1.56606">
        <ele>8.79</ele>
        <time>2013-04-30T08:45:40Z</time>
      </trkpt>
      <trkpt lat="50.32878" lon="1.56602">
        <ele>8.31</ele>
        <time>2013-04-30T08:45:51Z</time>
      </trkpt>
      <trkpt lat="50.32908" lon="1.56577">
        <ele>8.31</ele>
        <time>2013-04-30T08:46:18Z</time>
      </trkpt>
      <trkpt lat="50.32932" lon="1.56561">
        <ele>8.79</ele>
        <time>2013-04-30T08:46:39Z</time>
      </trkpt>
      <trkpt lat="50.32954" lon="1.56556">
        <ele>8.79</ele>
        <time>2013-04-30T08:46:59Z</time>
      </trkpt>
      <trkpt lat="50.32955" lon="1.5654">
        <ele>8.79</ele>
        <time>2013-04-30T08:47:17Z</time>
      </trkpt>
      <trkpt lat="50.32956" lon="1.56547">
        <ele>9.27</ele>
        <time>2013-04-30T08:47:23Z</time>
      </trkpt>
      <trkpt lat="50.32955" lon="1.56561">
        <ele>7.83</ele>
        <time>2013-04-30T08:47:40Z</time>
      </trkpt>
      <trkpt lat="50.32953" lon="1.56562">
        <ele>8.31</ele>
        <time>2013-04-30T08:47:43Z</time>
      </trkpt>
      <trkpt lat="50.32951" lon="1.56575">
        <ele>7.83</ele>
        <time>2013-04-30T08:47:52Z</time>
      </trkpt>
      <trkpt lat="50.32964" lon="1.56574">
        <ele>7.83</ele>
        <time>2013-04-30T08:48:03Z</time>
      </trkpt>
      <trkpt lat="50.32974" lon="1.56587">
        <ele>8.31</ele>
        <time>2013-04-30T08:48:15Z</time>
      </trkpt>
      <trkpt lat="50.32984" lon="1.56579">
        <ele>8.79</ele>
        <time>2013-04-30T08:48:30Z</time>
      </trkpt>
      <trkpt lat="50.3299" lon="1.56567">
        <ele>8.79</ele>
        <time>2013-04-30T08:48:39Z</time>
      </trkpt>
      <trkpt lat="50.32999" lon="1.56549">
        <ele>8.79</ele>
        <time>2013-04-30T08:48:54Z</time>
      </trkpt>
      <trkpt lat="50.33007" lon="1.56554">
        <ele>8.79</ele>
        <time>2013-04-30T08:49:07Z</time>
      </trkpt>
      <trkpt lat="50.33005" lon="1.56551">
        <ele>8.79</ele>
        <time>2013-04-30T08:49:15Z</time>
      </trkpt>
      <trkpt lat="50.33003" lon="1.56544">
        <ele>8.31</ele>
        <time>2013-04-30T08:49:21Z</time>
      </trkpt>
      <trkpt lat="50.32996" lon="1.5653">
        <ele>7.83</ele>
        <time>2013-04-30T08:49:37Z</time>
      </trkpt>
      <trkpt lat="50.33002" lon="1.56527">
        <ele>8.31</ele>
        <time>2013-04-30T08:50:00Z</time>
      </trkpt>
      <trkpt lat="50.33004" lon="1.56516">
        <ele>8.31</ele>
        <time>2013-04-30T08:50:07Z</time>
      </trkpt>
      <trkpt lat="50.33006" lon="1.56504">
        <ele>8.79</ele>
        <time>2013-04-30T08:50:18Z</time>
      </trkpt>
      <trkpt lat="50.33011" lon="1.56496">
        <ele>8.79</ele>
        <time>2013-04-30T08:50:24Z</time>
      </trkpt>
      <trkpt lat="50.33014" lon="1.56491">
        <ele>8.31</ele>
        <time>2013-04-30T08:50:29Z</time>
      </trkpt>
      <trkpt lat="50.33015" lon="1.56481">
        <ele>8.31</ele>
        <time>2013-04-30T08:50:36Z</time>
      </trkpt>
      <trkpt lat="50.33023" lon="1.56475">
        <ele>8.31</ele>
        <time>2013-04-30T08:50:48Z</time>
      </trkpt>
      <trkpt lat="50.33027" lon="1.56473">
        <ele>8.31</ele>
        <time>2013-04-30T08:51:02Z</time>
      </trkpt>
      <trkpt lat="50.33032" lon="1.56477">
        <ele>7.83</ele>
        <time>2013-04-30T08:51:08Z</time>
      </trkpt>
      <trkpt lat="50.33044" lon="1.5648">
        <ele>8.31</ele>
        <time>2013-04-30T08:51:25Z</time>
      </trkpt>
      <trkpt lat="50.33031" lon="1.56484">
        <ele>8.31</ele>
        <time>2013-04-30T08:51:51Z</time>
      </trkpt>
      <trkpt lat="50.33067" lon="1.56472">
        <ele>8.31</ele>
        <time>2013-04-30T08:52:06Z</time>
      </trkpt>
      <trkpt lat="50.33066" lon="1.5647">
        <ele>7.83</ele>
        <time>2013-04-30T08:52:19Z</time>
      </trkpt>
      <trkpt lat="50.33063" lon="1.56478">
        <ele>8.79</ele>
        <time>2013-04-30T08:52:42Z</time>
      </trkpt>
      <trkpt lat="50.33043" lon="1.56483">
        <ele>8.31</ele>
        <time>2013-04-30T08:53:02Z</time>
      </trkpt>
      <trkpt lat="50.33066" lon="1.56471">
        <ele>8.31</ele>
        <time>2013-04-30T08:53:16Z</time>
      </trkpt>
      <trkpt lat="50.33067" lon="1.56467">
        <ele>8.31</ele>
        <time>2013-04-30T08:53:22Z</time>
      </trkpt>
      <trkpt lat="50.33067" lon="1.56461">
        <ele>8.79</ele>
        <time>2013-04-30T08:53:30Z</time>
      </trkpt>
      <trkpt lat="50.33078" lon="1.56439">
        <ele>8.31</ele>
        <time>2013-04-30T08:53:45Z</time>
      </trkpt>
      <trkpt lat="50.33086" lon="1.56419">
        <ele>9.27</ele>
        <time>2013-04-30T08:54:00Z</time>
      </trkpt>
      <trkpt lat="50.33094" lon="1.56407">
        <ele>9.75</ele>
        <time>2013-04-30T08:54:13Z</time>
      </trkpt>
      <trkpt lat="50.33099" lon="1.56403">
        <ele>10.23</ele>
        <time>2013-04-30T08:54:26Z</time>
      </trkpt>
      <trkpt lat="50.33112" lon="1.56393">
        <ele>10.71</ele>
        <time>2013-04-30T08:54:39Z</time>
      </trkpt>
      <trkpt lat="50.33132" lon="1.56384">
        <ele>11.19</ele>
        <time>2013-04-30T08:54:58Z</time>
      </trkpt>
      <trkpt lat="50.33152" lon="1.56375">
        <ele>11.19</ele>
        <time>2013-04-30T08:55:15Z</time>
      </trkpt>
      <trkpt lat="50.33168" lon="1.5637">
        <ele>11.67</ele>
        <time>2013-04-30T08:55:29Z</time>
      </trkpt>
      <trkpt lat="50.33183" lon="1.56359">
        <ele>11.67</ele>
        <time>2013-04-30T08:55:46Z</time>
      </trkpt>
      <trkpt lat="50.33194" lon="1.5636">
        <ele>10.23</ele>
        <time>2013-04-30T08:55:54Z</time>
      </trkpt>
      <trkpt lat="50.33202" lon="1.56361">
        <ele>10.71</ele>
        <time>2013-04-30T08:55:59Z</time>
      </trkpt>
      <trkpt lat="50.33222" lon="1.56354">
        <ele>9.75</ele>
        <time>2013-04-30T08:56:18Z</time>
      </trkpt>
      <trkpt lat="50.33229" lon="1.56358">
        <ele>8.79</ele>
        <time>2013-04-30T08:56:26Z</time>
      </trkpt>
      <trkpt lat="50.33248" lon="1.56359">
        <ele>9.27</ele>
        <time>2013-04-30T08:56:41Z</time>
      </trkpt>
      <trkpt lat="50.33261" lon="1.56366">
        <ele>8.79</ele>
        <time>2013-04-30T08:56:51Z</time>
      </trkpt>
      <trkpt lat="50.3327" lon="1.5639">
        <ele>8.31</ele>
        <time>2013-04-30T08:57:04Z</time>
      </trkpt>
      <trkpt lat="50.33272" lon="1.56399">
        <ele>7.83</ele>
        <time>2013-04-30T08:57:11Z</time>
      </trkpt>
      <trkpt lat="50.33274" lon="1.56401">
        <ele>7.35</ele>
        <time>2013-04-30T08:57:13Z</time>
      </trkpt>
      <trkpt lat="50.33296" lon="1.56409">
        <ele>7.35</ele>
        <time>2013-04-30T08:57:30Z</time>
      </trkpt>
      <trkpt lat="50.3331" lon="1.56414">
        <ele>7.35</ele>
        <time>2013-04-30T08:57:43Z</time>
      </trkpt>
      <trkpt lat="50.33312" lon="1.56413">
        <ele>7.35</ele>
        <time>2013-04-30T08:57:46Z</time>
      </trkpt>
      <trkpt lat="50.33335" lon="1.56427">
        <ele>7.35</ele>
        <time>2013-04-30T08:58:05Z</time>
      </trkpt>
      <trkpt lat="50.33354" lon="1.56435">
        <ele>7.35</ele>
        <time>2013-04-30T08:58:21Z</time>
      </trkpt>
      <trkpt lat="50.33361" lon="1.56439">
        <ele>7.83</ele>
        <time>2013-04-30T08:58:29Z</time>
      </trkpt>
      <trkpt lat="50.33368" lon="1.56436">
        <ele>7.83</ele>
        <time>2013-04-30T08:58:37Z</time>
      </trkpt>
      <trkpt lat="50.33374" lon="1.56435">
        <ele>6.87</ele>
        <time>2013-04-30T08:58:47Z</time>
      </trkpt>
      <trkpt lat="50.33381" lon="1.56434">
        <ele>7.35</ele>
        <time>2013-04-30T08:58:55Z</time>
      </trkpt>
      <trkpt lat="50.33378" lon="1.56434">
        <ele>7.35</ele>
        <time>2013-04-30T08:58:58Z</time>
      </trkpt>
      <trkpt lat="50.33368" lon="1.56435">
        <ele>6.87</ele>
        <time>2013-04-30T08:59:07Z</time>
      </trkpt>
      <trkpt lat="50.33375" lon="1.56423">
        <ele>7.35</ele>
        <time>2013-04-30T08:59:16Z</time>
      </trkpt>
      <trkpt lat="50.33381" lon="1.56416">
        <ele>7.35</ele>
        <time>2013-04-30T08:59:35Z</time>
      </trkpt>
      <trkpt lat="50.33384" lon="1.56415">
        <ele>7.83</ele>
        <time>2013-04-30T08:59:39Z</time>
      </trkpt>
      <trkpt lat="50.33402" lon="1.56423">
        <ele>7.35</ele>
        <time>2013-04-30T08:59:56Z</time>
      </trkpt>
      <trkpt lat="50.33415" lon="1.56434">
        <ele>6.39</ele>
        <time>2013-04-30T09:00:10Z</time>
      </trkpt>
      <trkpt lat="50.33422" lon="1.56434">
        <ele>6.87</ele>
        <time>2013-04-30T09:00:23Z</time>
      </trkpt>
      <trkpt lat="50.33423" lon="1.56434">
        <ele>6.87</ele>
        <time>2013-04-30T09:00:24Z</time>
      </trkpt>
      <trkpt lat="50.33431" lon="1.56431">
        <ele>6.87</ele>
        <time>2013-04-30T09:00:31Z</time>
      </trkpt>
      <trkpt lat="50.33449" lon="1.56424">
        <ele>6.39</ele>
        <time>2013-04-30T09:00:47Z</time>
      </trkpt>
      <trkpt lat="50.33465" lon="1.56425">
        <ele>6.39</ele>
        <time>2013-04-30T09:01:00Z</time>
      </trkpt>
      <trkpt lat="50.33478" lon="1.56426">
        <ele>6.87</ele>
        <time>2013-04-30T09:01:12Z</time>
      </trkpt>
      <trkpt lat="50.33487" lon="1.5643">
        <ele>6.87</ele>
        <time>2013-04-30T09:01:18Z</time>
      </trkpt>
      <trkpt lat="50.33508" lon="1.56425">
        <ele>7.35</ele>
        <time>2013-04-30T09:01:36Z</time>
      </trkpt>
      <trkpt lat="50.33529" lon="1.56421">
        <ele>7.35</ele>
        <time>2013-04-30T09:01:54Z</time>
      </trkpt>
      <trkpt lat="50.33547" lon="1.56418">
        <ele>7.83</ele>
        <time>2013-04-30T09:02:09Z</time>
      </trkpt>
      <trkpt lat="50.33564" lon="1.56415">
        <ele>7.35</ele>
        <time>2013-04-30T09:02:23Z</time>
      </trkpt>
      <trkpt lat="50.33567" lon="1.56415">
        <ele>7.35</ele>
        <time>2013-04-30T09:02:26Z</time>
      </trkpt>
      <trkpt lat="50.3359" lon="1.5642">
        <ele>7.83</ele>
        <time>2013-04-30T09:02:45Z</time>
      </trkpt>
      <trkpt lat="50.33591" lon="1.5642">
        <ele>7.83</ele>
        <time>2013-04-30T09:02:46Z</time>
      </trkpt>
      <trkpt lat="50.33593" lon="1.56419">
        <ele>7.83</ele>
        <time>2013-04-30T09:02:48Z</time>
      </trkpt>
      <trkpt lat="50.33613" lon="1.56428">
        <ele>8.79</ele>
        <time>2013-04-30T09:03:05Z</time>
      </trkpt>
      <trkpt lat="50.33634" lon="1.56446">
        <ele>8.79</ele>
        <time>2013-04-30T09:03:24Z</time>
      </trkpt>
      <trkpt lat="50.3365" lon="1.56466">
        <ele>6.87</ele>
        <time>2013-04-30T09:03:41Z</time>
      </trkpt>
      <trkpt lat="50.33664" lon="1.56484">
        <ele>7.35</ele>
        <time>2013-04-30T09:03:55Z</time>
      </trkpt>
      <trkpt lat="50.33665" lon="1.56488">
        <ele>7.35</ele>
        <time>2013-04-30T09:03:57Z</time>
      </trkpt>
      <trkpt lat="50.33669" lon="1.56493">
        <ele>7.83</ele>
        <time>2013-04-30T09:04:01Z</time>
      </trkpt>
      <trkpt lat="50.33679" lon="1.56503">
        <ele>6.87</ele>
        <time>2013-04-30T09:04:12Z</time>
      </trkpt>
      <trkpt lat="50.33683" lon="1.56509">
        <ele>6.39</ele>
        <time>2013-04-30T09:04:16Z</time>
      </trkpt>
      <trkpt lat="50.33696" lon="1.56531">
        <ele>4.94</ele>
        <time>2013-04-30T09:04:33Z</time>
      </trkpt>
      <trkpt lat="50.33703" lon="1.56544">
        <ele>5.42</ele>
        <time>2013-04-30T09:04:47Z</time>
      </trkpt>
      <trkpt lat="50.33718" lon="1.56566">
        <ele>5.42</ele>
        <time>2013-04-30T09:05:03Z</time>
      </trkpt>
      <trkpt lat="50.33735" lon="1.56587">
        <ele>5.42</ele>
        <time>2013-04-30T09:05:20Z</time>
      </trkpt>
      <trkpt lat="50.33755" lon="1.56611">
        <ele>5.42</ele>
        <time>2013-04-30T09:05:40Z</time>
      </trkpt>
      <trkpt lat="50.33764" lon="1.56623">
        <ele>5.42</ele>
        <time>2013-04-30T09:05:52Z</time>
      </trkpt>
      <trkpt lat="50.33781" lon="1.56644">
        <ele>5.91</ele>
        <time>2013-04-30T09:06:09Z</time>
      </trkpt>
      <trkpt lat="50.33783" lon="1.56647">
        <ele>5.42</ele>
        <time>2013-04-30T09:06:12Z</time>
      </trkpt>
      <trkpt lat="50.33803" lon="1.56663">
        <ele>5.42</ele>
        <time>2013-04-30T09:06:31Z</time>
      </trkpt>
      <trkpt lat="50.33818" lon="1.56672">
        <ele>6.39</ele>
        <time>2013-04-30T09:06:45Z</time>
      </trkpt>
      <trkpt lat="50.33822" lon="1.56674">
        <ele>6.39</ele>
        <time>2013-04-30T09:06:48Z</time>
      </trkpt>
      <trkpt lat="50.33826" lon="1.56673">
        <ele>6.39</ele>
        <time>2013-04-30T09:06:51Z</time>
      </trkpt>
      <trkpt lat="50.33844" lon="1.56648">
        <ele>5.91</ele>
        <time>2013-04-30T09:07:09Z</time>
      </trkpt>
      <trkpt lat="50.3386" lon="1.56628">
        <ele>6.87</ele>
        <time>2013-04-30T09:07:26Z</time>
      </trkpt>
      <trkpt lat="50.33864" lon="1.56623">
        <ele>6.87</ele>
        <time>2013-04-30T09:07:31Z</time>
      </trkpt>
      <trkpt lat="50.33874" lon="1.56606">
        <ele>6.87</ele>
        <time>2013-04-30T09:07:43Z</time>
      </trkpt>
      <trkpt lat="50.3389" lon="1.56604">
        <ele>6.87</ele>
        <time>2013-04-30T09:07:57Z</time>
      </trkpt>
      <trkpt lat="50.33897" lon="1.56602">
        <ele>6.87</ele>
        <time>2013-04-30T09:08:08Z</time>
      </trkpt>
      <trkpt lat="50.33911" lon="1.56601">
        <ele>5.91</ele>
        <time>2013-04-30T09:08:23Z</time>
      </trkpt>
      <trkpt lat="50.33915" lon="1.566">
        <ele>5.91</ele>
        <time>2013-04-30T09:08:26Z</time>
      </trkpt>
      <trkpt lat="50.33919" lon="1.566">
        <ele>6.39</ele>
        <time>2013-04-30T09:08:30Z</time>
      </trkpt>
      <trkpt lat="50.33942" lon="1.56598">
        <ele>6.87</ele>
        <time>2013-04-30T09:08:50Z</time>
      </trkpt>
      <trkpt lat="50.33959" lon="1.56596">
        <ele>6.39</ele>
        <time>2013-04-30T09:09:04Z</time>
      </trkpt>
      <trkpt lat="50.33964" lon="1.56596">
        <ele>6.39</ele>
        <time>2013-04-30T09:09:08Z</time>
      </trkpt>
      <trkpt lat="50.33983" lon="1.56591">
        <ele>6.87</ele>
        <time>2013-04-30T09:09:27Z</time>
      </trkpt>
      <trkpt lat="50.33982" lon="1.56586">
        <ele>6.87</ele>
        <time>2013-04-30T09:09:32Z</time>
      </trkpt>
      <trkpt lat="50.3398" lon="1.56582">
        <ele>7.35</ele>
        <time>2013-04-30T09:09:43Z</time>
      </trkpt>
      <trkpt lat="50.33981" lon="1.56576">
        <ele>6.87</ele>
        <time>2013-04-30T09:09:46Z</time>
      </trkpt>
      <trkpt lat="50.33982" lon="1.56561">
        <ele>6.87</ele>
        <time>2013-04-30T09:09:55Z</time>
      </trkpt>
      <trkpt lat="50.33979" lon="1.56528">
        <ele>6.87</ele>
        <time>2013-04-30T09:10:12Z</time>
      </trkpt>
      <trkpt lat="50.33978" lon="1.56515">
        <ele>6.39</ele>
        <time>2013-04-30T09:10:28Z</time>
      </trkpt>
      <trkpt lat="50.33977" lon="1.56512">
        <ele>6.87</ele>
        <time>2013-04-30T09:10:56Z</time>
      </trkpt>
      <trkpt lat="50.33977" lon="1.56495">
        <ele>6.39</ele>
        <time>2013-04-30T09:11:13Z</time>
      </trkpt>
      <trkpt lat="50.33976" lon="1.56461">
        <ele>6.87</ele>
        <time>2013-04-30T09:11:31Z</time>
      </trkpt>
      <trkpt lat="50.33975" lon="1.56428">
        <ele>6.39</ele>
        <time>2013-04-30T09:11:48Z</time>
      </trkpt>
      <trkpt lat="50.3397" lon="1.56405">
        <ele>6.39</ele>
        <time>2013-04-30T09:12:03Z</time>
      </trkpt>
      <trkpt lat="50.33972" lon="1.56392">
        <ele>6.39</ele>
        <time>2013-04-30T09:12:11Z</time>
      </trkpt>
      <trkpt lat="50.33972" lon="1.56383">
        <ele>6.39</ele>
        <time>2013-04-30T09:12:16Z</time>
      </trkpt>
      <trkpt lat="50.33967" lon="1.56372">
        <ele>6.39</ele>
        <time>2013-04-30T09:12:26Z</time>
      </trkpt>
      <trkpt lat="50.33968" lon="1.56341">
        <ele>5.91</ele>
        <time>2013-04-30T09:12:43Z</time>
      </trkpt>
      <trkpt lat="50.33968" lon="1.56328">
        <ele>5.91</ele>
        <time>2013-04-30T09:12:55Z</time>
      </trkpt>
      <trkpt lat="50.33968" lon="1.56322">
        <ele>6.39</ele>
        <time>2013-04-30T09:12:59Z</time>
      </trkpt>
      <trkpt lat="50.33964" lon="1.56296">
        <ele>5.91</ele>
        <time>2013-04-30T09:13:14Z</time>
      </trkpt>
      <trkpt lat="50.33963" lon="1.56269">
        <ele>5.91</ele>
        <time>2013-04-30T09:13:29Z</time>
      </trkpt>
      <trkpt lat="50.33963" lon="1.5626">
        <ele>5.91</ele>
        <time>2013-04-30T09:13:44Z</time>
      </trkpt>
      <trkpt lat="50.33962" lon="1.56251">
        <ele>6.39</ele>
        <time>2013-04-30T09:14:06Z</time>
      </trkpt>
      <trkpt lat="50.33962" lon="1.56227">
        <ele>5.91</ele>
        <time>2013-04-30T09:14:22Z</time>
      </trkpt>
      <trkpt lat="50.3396" lon="1.56201">
        <ele>5.91</ele>
        <time>2013-04-30T09:14:38Z</time>
      </trkpt>
      <trkpt lat="50.33958" lon="1.56176">
        <ele>5.91</ele>
        <time>2013-04-30T09:14:53Z</time>
      </trkpt>
      <trkpt lat="50.33956" lon="1.56141">
        <ele>5.91</ele>
        <time>2013-04-30T09:15:12Z</time>
      </trkpt>
      <trkpt lat="50.33956" lon="1.56136">
        <ele>5.91</ele>
        <time>2013-04-30T09:15:15Z</time>
      </trkpt>
      <trkpt lat="50.33956" lon="1.56115">
        <ele>6.39</ele>
        <time>2013-04-30T09:15:27Z</time>
      </trkpt>
      <trkpt lat="50.33955" lon="1.56088">
        <ele>6.87</ele>
        <time>2013-04-30T09:15:43Z</time>
      </trkpt>
      <trkpt lat="50.33954" lon="1.56064">
        <ele>6.87</ele>
        <time>2013-04-30T09:15:58Z</time>
      </trkpt>
      <trkpt lat="50.33953" lon="1.56055">
        <ele>6.39</ele>
        <time>2013-04-30T09:16:03Z</time>
      </trkpt>
      <trkpt lat="50.33953" lon="1.56036">
        <ele>6.87</ele>
        <time>2013-04-30T09:16:14Z</time>
      </trkpt>
      <trkpt lat="50.3395" lon="1.56014">
        <ele>7.35</ele>
        <time>2013-04-30T09:16:27Z</time>
      </trkpt>
      <trkpt lat="50.33949" lon="1.55995">
        <ele>7.35</ele>
        <time>2013-04-30T09:16:39Z</time>
      </trkpt>
      <trkpt lat="50.33948" lon="1.55976">
        <ele>7.35</ele>
        <time>2013-04-30T09:16:50Z</time>
      </trkpt>
      <trkpt lat="50.33947" lon="1.55968">
        <ele>7.83</ele>
        <time>2013-04-30T09:16:54Z</time>
      </trkpt>
      <trkpt lat="50.33945" lon="1.5596">
        <ele>7.83</ele>
        <time>2013-04-30T09:17:09Z</time>
      </trkpt>
      <trkpt lat="50.33952" lon="1.5596">
        <ele>7.35</ele>
        <time>2013-04-30T09:17:30Z</time>
      </trkpt>
      <trkpt lat="50.33962" lon="1.55945">
        <ele>7.83</ele>
        <time>2013-04-30T09:17:46Z</time>
      </trkpt>
      <trkpt lat="50.33969" lon="1.55944">
        <ele>7.83</ele>
        <time>2013-04-30T09:18:00Z</time>
      </trkpt>
      <trkpt lat="50.33976" lon="1.55942">
        <ele>7.83</ele>
        <time>2013-04-30T09:18:31Z</time>
      </trkpt>
      <trkpt lat="50.33974" lon="1.55938">
        <ele>7.83</ele>
        <time>2013-04-30T09:18:49Z</time>
      </trkpt>
      <trkpt lat="50.3397" lon="1.55938">
        <ele>8.31</ele>
        <time>2013-04-30T09:18:59Z</time>
      </trkpt>
      <trkpt lat="50.33965" lon="1.55929">
        <ele>7.83</ele>
        <time>2013-04-30T09:19:05Z</time>
      </trkpt>
      <trkpt lat="50.33945" lon="1.55901">
        <ele>7.83</ele>
        <time>2013-04-30T09:19:20Z</time>
      </trkpt>
      <trkpt lat="50.33944" lon="1.55873">
        <ele>8.31</ele>
        <time>2013-04-30T09:19:36Z</time>
      </trkpt>
      <trkpt lat="50.33944" lon="1.55863">
        <ele>8.79</ele>
        <time>2013-04-30T09:19:42Z</time>
      </trkpt>
      <trkpt lat="50.33942" lon="1.55844">
        <ele>8.79</ele>
        <time>2013-04-30T09:19:53Z</time>
      </trkpt>
      <trkpt lat="50.3394" lon="1.55815">
        <ele>9.27</ele>
        <time>2013-04-30T09:20:10Z</time>
      </trkpt>
      <trkpt lat="50.33939" lon="1.55806">
        <ele>9.27</ele>
        <time>2013-04-30T09:20:15Z</time>
      </trkpt>
      <trkpt lat="50.3394" lon="1.558">
        <ele>9.27</ele>
        <time>2013-04-30T09:20:19Z</time>
      </trkpt>
      <trkpt lat="50.33939" lon="1.55791">
        <ele>9.27</ele>
        <time>2013-04-30T09:20:24Z</time>
      </trkpt>
      <trkpt lat="50.33939" lon="1.55783">
        <ele>9.27</ele>
        <time>2013-04-30T09:20:29Z</time>
      </trkpt>
      <trkpt lat="50.33938" lon="1.55761">
        <ele>9.75</ele>
        <time>2013-04-30T09:20:44Z</time>
      </trkpt>
      <trkpt lat="50.3394" lon="1.55755">
        <ele>9.75</ele>
        <time>2013-04-30T09:20:48Z</time>
      </trkpt>
      <trkpt lat="50.33936" lon="1.55723">
        <ele>10.23</ele>
        <time>2013-04-30T09:21:06Z</time>
      </trkpt>
      <trkpt lat="50.33936" lon="1.55714">
        <ele>10.23</ele>
        <time>2013-04-30T09:21:11Z</time>
      </trkpt>
      <trkpt lat="50.33932" lon="1.55684">
        <ele>10.71</ele>
        <time>2013-04-30T09:21:28Z</time>
      </trkpt>
      <trkpt lat="50.3393" lon="1.55659">
        <ele>11.19</ele>
        <time>2013-04-30T09:21:42Z</time>
      </trkpt>
      <trkpt lat="50.33929" lon="1.55633">
        <ele>10.71</ele>
        <time>2013-04-30T09:21:56Z</time>
      </trkpt>
      <trkpt lat="50.33928" lon="1.55604">
        <ele>11.19</ele>
        <time>2013-04-30T09:22:12Z</time>
      </trkpt>
      <trkpt lat="50.33925" lon="1.5558">
        <ele>11.19</ele>
        <time>2013-04-30T09:22:28Z</time>
      </trkpt>
      <trkpt lat="50.33925" lon="1.55571">
        <ele>11.19</ele>
        <time>2013-04-30T09:22:41Z</time>
      </trkpt>
      <trkpt lat="50.33922" lon="1.55555">
        <ele>11.19</ele>
        <time>2013-04-30T09:22:56Z</time>
      </trkpt>
      <trkpt lat="50.33922" lon="1.55555">
        <ele>11.19</ele>
        <time>2013-04-30T09:23:20Z</time>
      </trkpt>
      <trkpt lat="50.33921" lon="1.5555">
        <ele>11.19</ele>
        <time>2013-04-30T09:23:28Z</time>
      </trkpt>
      <trkpt lat="50.33919" lon="1.55526">
        <ele>10.71</ele>
        <time>2013-04-30T09:23:42Z</time>
      </trkpt>
      <trkpt lat="50.33918" lon="1.55515">
        <ele>10.71</ele>
        <time>2013-04-30T09:23:50Z</time>
      </trkpt>
      <trkpt lat="50.33921" lon="1.55491">
        <ele>10.23</ele>
        <time>2013-04-30T09:24:05Z</time>
      </trkpt>
      <trkpt lat="50.3392" lon="1.55474">
        <ele>9.75</ele>
        <time>2013-04-30T09:24:18Z</time>
      </trkpt>
      <trkpt lat="50.3392" lon="1.55453">
        <ele>9.75</ele>
        <time>2013-04-30T09:24:31Z</time>
      </trkpt>
      <trkpt lat="50.33918" lon="1.5543">
        <ele>9.75</ele>
        <time>2013-04-30T09:24:47Z</time>
      </trkpt>
      <trkpt lat="50.33918" lon="1.55427">
        <ele>9.27</ele>
        <time>2013-04-30T09:24:49Z</time>
      </trkpt>
      <trkpt lat="50.33917" lon="1.55402">
        <ele>9.75</ele>
        <time>2013-04-30T09:25:03Z</time>
      </trkpt>
      <trkpt lat="50.33917" lon="1.55381">
        <ele>8.79</ele>
        <time>2013-04-30T09:25:18Z</time>
      </trkpt>
      <trkpt lat="50.33917" lon="1.55358">
        <ele>8.31</ele>
        <time>2013-04-30T09:25:32Z</time>
      </trkpt>
      <trkpt lat="50.33914" lon="1.55334">
        <ele>8.31</ele>
        <time>2013-04-30T09:25:47Z</time>
      </trkpt>
      <trkpt lat="50.33911" lon="1.5531">
        <ele>7.83</ele>
        <time>2013-04-30T09:26:00Z</time>
      </trkpt>
      <trkpt lat="50.3391" lon="1.55306">
        <ele>7.83</ele>
        <time>2013-04-30T09:26:02Z</time>
      </trkpt>
      <trkpt lat="50.33911" lon="1.55282">
        <ele>7.35</ele>
        <time>2013-04-30T09:26:16Z</time>
      </trkpt>
      <trkpt lat="50.3391" lon="1.55258">
        <ele>6.87</ele>
        <time>2013-04-30T09:26:30Z</time>
      </trkpt>
      <trkpt lat="50.33908" lon="1.55251">
        <ele>7.35</ele>
        <time>2013-04-30T09:26:34Z</time>
      </trkpt>
      <trkpt lat="50.33907" lon="1.55233">
        <ele>7.35</ele>
        <time>2013-04-30T09:26:45Z</time>
      </trkpt>
      <trkpt lat="50.33906" lon="1.55224">
        <ele>6.87</ele>
        <time>2013-04-30T09:26:49Z</time>
      </trkpt>
      <trkpt lat="50.33905" lon="1.55196">
        <ele>6.39</ele>
        <time>2013-04-30T09:27:04Z</time>
      </trkpt>
      <trkpt lat="50.33905" lon="1.55195">
        <ele>6.39</ele>
        <time>2013-04-30T09:27:05Z</time>
      </trkpt>
      <trkpt lat="50.33903" lon="1.55174">
        <ele>6.87</ele>
        <time>2013-04-30T09:27:16Z</time>
      </trkpt>
      <trkpt lat="50.33901" lon="1.55167">
        <ele>6.39</ele>
        <time>2013-04-30T09:27:21Z</time>
      </trkpt>
      <trkpt lat="50.33901" lon="1.55135">
        <ele>6.39</ele>
        <time>2013-04-30T09:27:38Z</time>
      </trkpt>
      <trkpt lat="50.33901" lon="1.55104">
        <ele>6.39</ele>
        <time>2013-04-30T09:27:54Z</time>
      </trkpt>
      <trkpt lat="50.33898" lon="1.55078">
        <ele>5.91</ele>
        <time>2013-04-30T09:28:11Z</time>
      </trkpt>
      <trkpt lat="50.33896" lon="1.55072">
        <ele>6.39</ele>
        <time>2013-04-30T09:28:15Z</time>
      </trkpt>
      <trkpt lat="50.33894" lon="1.55064">
        <ele>6.39</ele>
        <time>2013-04-30T09:28:20Z</time>
      </trkpt>
      <trkpt lat="50.3389" lon="1.55049">
        <ele>6.39</ele>
        <time>2013-04-30T09:28:30Z</time>
      </trkpt>
      <trkpt lat="50.33888" lon="1.5502">
        <ele>6.87</ele>
        <time>2013-04-30T09:28:46Z</time>
      </trkpt>
      <trkpt lat="50.33889" lon="1.55007">
        <ele>6.87</ele>
        <time>2013-04-30T09:28:57Z</time>
      </trkpt>
      <trkpt lat="50.33895" lon="1.54993">
        <ele>6.87</ele>
        <time>2013-04-30T09:29:09Z</time>
      </trkpt>
      <trkpt lat="50.33893" lon="1.54969">
        <ele>6.87</ele>
        <time>2013-04-30T09:29:24Z</time>
      </trkpt>
      <trkpt lat="50.33892" lon="1.54964">
        <ele>6.87</ele>
        <time>2013-04-30T09:29:27Z</time>
      </trkpt>
      <trkpt lat="50.33876" lon="1.54961">
        <ele>6.87</ele>
        <time>2013-04-30T09:29:42Z</time>
      </trkpt>
      <trkpt lat="50.33856" lon="1.54958">
        <ele>6.87</ele>
        <time>2013-04-30T09:29:59Z</time>
      </trkpt>
      <trkpt lat="50.33844" lon="1.54954">
        <ele>7.83</ele>
        <time>2013-04-30T09:30:14Z</time>
      </trkpt>
      <trkpt lat="50.33839" lon="1.54956">
        <ele>7.83</ele>
        <time>2013-04-30T09:30:25Z</time>
      </trkpt>
      <trkpt lat="50.33833" lon="1.54955">
        <ele>7.83</ele>
        <time>2013-04-30T09:30:36Z</time>
      </trkpt>
      <trkpt lat="50.3382" lon="1.54951">
        <ele>7.83</ele>
        <time>2013-04-30T09:30:50Z</time>
      </trkpt>
      <trkpt lat="50.33804" lon="1.54946">
        <ele>7.83</ele>
        <time>2013-04-30T09:31:06Z</time>
      </trkpt>
      <trkpt lat="50.33793" lon="1.54941">
        <ele>7.83</ele>
        <time>2013-04-30T09:31:20Z</time>
      </trkpt>
      <trkpt lat="50.33788" lon="1.54938">
        <ele>7.83</ele>
        <time>2013-04-30T09:31:37Z</time>
      </trkpt>
      <trkpt lat="50.33783" lon="1.5494">
        <ele>7.83</ele>
        <time>2013-04-30T09:31:49Z</time>
      </trkpt>
      <trkpt lat="50.33776" lon="1.5494">
        <ele>7.83</ele>
        <time>2013-04-30T09:32:00Z</time>
      </trkpt>
      <trkpt lat="50.33759" lon="1.54933">
        <ele>7.83</ele>
        <time>2013-04-30T09:32:15Z</time>
      </trkpt>
      <trkpt lat="50.33756" lon="1.54934">
        <ele>8.31</ele>
        <time>2013-04-30T09:32:19Z</time>
      </trkpt>
      <trkpt lat="50.33739" lon="1.54931">
        <ele>7.83</ele>
        <time>2013-04-30T09:32:35Z</time>
      </trkpt>
      <trkpt lat="50.33736" lon="1.5493">
        <ele>8.31</ele>
        <time>2013-04-30T09:32:39Z</time>
      </trkpt>
      <trkpt lat="50.33728" lon="1.54926">
        <ele>7.83</ele>
        <time>2013-04-30T09:32:53Z</time>
      </trkpt>
      <trkpt lat="50.33727" lon="1.54926">
        <ele>7.83</ele>
        <time>2013-04-30T09:32:54Z</time>
      </trkpt>
      <trkpt lat="50.33705" lon="1.54921">
        <ele>7.83</ele>
        <time>2013-04-30T09:33:13Z</time>
      </trkpt>
      <trkpt lat="50.3368" lon="1.54915">
        <ele>7.83</ele>
        <time>2013-04-30T09:33:33Z</time>
      </trkpt>
      <trkpt lat="50.33659" lon="1.54908">
        <ele>7.83</ele>
        <time>2013-04-30T09:33:53Z</time>
      </trkpt>
      <trkpt lat="50.33639" lon="1.54905">
        <ele>7.83</ele>
        <time>2013-04-30T09:34:12Z</time>
      </trkpt>
      <trkpt lat="50.33621" lon="1.54899">
        <ele>7.83</ele>
        <time>2013-04-30T09:34:28Z</time>
      </trkpt>
      <trkpt lat="50.33615" lon="1.54897">
        <ele>8.31</ele>
        <time>2013-04-30T09:34:35Z</time>
      </trkpt>
      <trkpt lat="50.33592" lon="1.54889">
        <ele>8.31</ele>
        <time>2013-04-30T09:34:55Z</time>
      </trkpt>
      <trkpt lat="50.33591" lon="1.54889">
        <ele>8.31</ele>
        <time>2013-04-30T09:34:57Z</time>
      </trkpt>
      <trkpt lat="50.33571" lon="1.54886">
        <ele>8.31</ele>
        <time>2013-04-30T09:35:16Z</time>
      </trkpt>
      <trkpt lat="50.33566" lon="1.54887">
        <ele>8.31</ele>
        <time>2013-04-30T09:35:20Z</time>
      </trkpt>
      <trkpt lat="50.3356" lon="1.54904">
        <ele>8.31</ele>
        <time>2013-04-30T09:35:33Z</time>
      </trkpt>
      <trkpt lat="50.33558" lon="1.54907">
        <ele>7.83</ele>
        <time>2013-04-30T09:35:36Z</time>
      </trkpt>
      <trkpt lat="50.33554" lon="1.5491">
        <ele>8.31</ele>
        <time>2013-04-30T09:35:40Z</time>
      </trkpt>
      <trkpt lat="50.33547" lon="1.54909">
        <ele>8.31</ele>
        <time>2013-04-30T09:35:44Z</time>
      </trkpt>
      <trkpt lat="50.33544" lon="1.54912">
        <ele>8.31</ele>
        <time>2013-04-30T09:35:48Z</time>
      </trkpt>
      <trkpt lat="50.33528" lon="1.54909">
        <ele>8.79</ele>
        <time>2013-04-30T09:36:02Z</time>
      </trkpt>
      <trkpt lat="50.33512" lon="1.54905">
        <ele>8.79</ele>
        <time>2013-04-30T09:36:14Z</time>
      </trkpt>
      <trkpt lat="50.33511" lon="1.54904">
        <ele>8.79</ele>
        <time>2013-04-30T09:36:15Z</time>
      </trkpt>
      <trkpt lat="50.3351" lon="1.54903">
        <ele>9.27</ele>
        <time>2013-04-30T09:36:16Z</time>
      </trkpt>
      <trkpt lat="50.33509" lon="1.54903">
        <ele>8.79</ele>
        <time>2013-04-30T09:36:17Z</time>
      </trkpt>
      <trkpt lat="50.33509" lon="1.54899">
        <ele>8.79</ele>
        <time>2013-04-30T09:36:20Z</time>
      </trkpt>
      <trkpt lat="50.33509" lon="1.54897">
        <ele>8.79</ele>
        <time>2013-04-30T09:36:21Z</time>
      </trkpt>
      <trkpt lat="50.33509" lon="1.54895">
        <ele>8.79</ele>
        <time>2013-04-30T09:36:22Z</time>
      </trkpt>
      <trkpt lat="50.33508" lon="1.54893">
        <ele>8.79</ele>
        <time>2013-04-30T09:36:23Z</time>
      </trkpt>
      <trkpt lat="50.33506" lon="1.5489">
        <ele>8.31</ele>
        <time>2013-04-30T09:36:31Z</time>
      </trkpt>
      <trkpt lat="50.33488" lon="1.54896">
        <ele>8.31</ele>
        <time>2013-04-30T09:36:46Z</time>
      </trkpt>
      <trkpt lat="50.33485" lon="1.54895">
        <ele>8.79</ele>
        <time>2013-04-30T09:36:51Z</time>
      </trkpt>
      <trkpt lat="50.33483" lon="1.54895">
        <ele>8.79</ele>
        <time>2013-04-30T09:36:52Z</time>
      </trkpt>
      <trkpt lat="50.33482" lon="1.54895">
        <ele>8.79</ele>
        <time>2013-04-30T09:36:53Z</time>
      </trkpt>
      <trkpt lat="50.3348" lon="1.54895">
        <ele>8.31</ele>
        <time>2013-04-30T09:36:54Z</time>
      </trkpt>
      <trkpt lat="50.33479" lon="1.54894">
        <ele>8.31</ele>
        <time>2013-04-30T09:36:55Z</time>
      </trkpt>
      <trkpt lat="50.33477" lon="1.54894">
        <ele>8.79</ele>
        <time>2013-04-30T09:36:56Z</time>
      </trkpt>
      <trkpt lat="50.33462" lon="1.54889">
        <ele>9.27</ele>
        <time>2013-04-30T09:37:09Z</time>
      </trkpt>
      <trkpt lat="50.33454" lon="1.54886">
        <ele>9.27</ele>
        <time>2013-04-30T09:37:20Z</time>
      </trkpt>
      <trkpt lat="50.33453" lon="1.54884">
        <ele>8.79</ele>
        <time>2013-04-30T09:37:21Z</time>
      </trkpt>
      <trkpt lat="50.33452" lon="1.54882">
        <ele>8.79</ele>
        <time>2013-04-30T09:37:22Z</time>
      </trkpt>
      <trkpt lat="50.33451" lon="1.5488">
        <ele>8.79</ele>
        <time>2013-04-30T09:37:23Z</time>
      </trkpt>
      <trkpt lat="50.33449" lon="1.54871">
        <ele>8.79</ele>
        <time>2013-04-30T09:37:29Z</time>
      </trkpt>
      <trkpt lat="50.33448" lon="1.5487">
        <ele>8.79</ele>
        <time>2013-04-30T09:37:30Z</time>
      </trkpt>
      <trkpt lat="50.33438" lon="1.54866">
        <ele>7.83</ele>
        <time>2013-04-30T09:37:43Z</time>
      </trkpt>
      <trkpt lat="50.33422" lon="1.54858">
        <ele>7.35</ele>
        <time>2013-04-30T09:37:59Z</time>
      </trkpt>
      <trkpt lat="50.33417" lon="1.5486">
        <ele>7.83</ele>
        <time>2013-04-30T09:38:14Z</time>
      </trkpt>
      <trkpt lat="50.33409" lon="1.54854">
        <ele>7.83</ele>
        <time>2013-04-30T09:38:27Z</time>
      </trkpt>
      <trkpt lat="50.33394" lon="1.54847">
        <ele>7.35</ele>
        <time>2013-04-30T09:38:43Z</time>
      </trkpt>
      <trkpt lat="50.33387" lon="1.54848">
        <ele>7.35</ele>
        <time>2013-04-30T09:38:56Z</time>
      </trkpt>
      <trkpt lat="50.33386" lon="1.54855">
        <ele>7.35</ele>
        <time>2013-04-30T09:39:11Z</time>
      </trkpt>
      <trkpt lat="50.33386" lon="1.54857">
        <ele>6.87</ele>
        <time>2013-04-30T09:39:13Z</time>
      </trkpt>
      <trkpt lat="50.3338" lon="1.54864">
        <ele>8.79</ele>
        <time>2013-04-30T09:39:33Z</time>
      </trkpt>
      <trkpt lat="50.33379" lon="1.54861">
        <ele>8.31</ele>
        <time>2013-04-30T09:40:05Z</time>
      </trkpt>
      <trkpt lat="50.33382" lon="1.54848">
        <ele>7.35</ele>
        <time>2013-04-30T09:40:17Z</time>
      </trkpt>
      <trkpt lat="50.33387" lon="1.54848">
        <ele>6.87</ele>
        <time>2013-04-30T09:40:33Z</time>
      </trkpt>
      <trkpt lat="50.33385" lon="1.54844">
        <ele>7.35</ele>
        <time>2013-04-30T09:41:00Z</time>
      </trkpt>
      <trkpt lat="50.33386" lon="1.54845">
        <ele>7.35</ele>
        <time>2013-04-30T09:41:21Z</time>
      </trkpt>
      <trkpt lat="50.33378" lon="1.54844">
        <ele>7.35</ele>
        <time>2013-04-30T09:41:33Z</time>
      </trkpt>
      <trkpt lat="50.33378" lon="1.54828">
        <ele>4.94</ele>
        <time>2013-04-30T09:41:45Z</time>
      </trkpt>
      <trkpt lat="50.33377" lon="1.54825">
        <ele>4.94</ele>
        <time>2013-04-30T09:41:47Z</time>
      </trkpt>
      <trkpt lat="50.33377" lon="1.54823">
        <ele>4.46</ele>
        <time>2013-04-30T09:41:48Z</time>
      </trkpt>
      <trkpt lat="50.33374" lon="1.54815">
        <ele>4.46</ele>
        <time>2013-04-30T09:42:02Z</time>
      </trkpt>
      <trkpt lat="50.33373" lon="1.54815">
        <ele>3.02</ele>
        <time>2013-04-30T09:42:20Z</time>
      </trkpt>
      <trkpt lat="50.33369" lon="1.54811">
        <ele>3.98</ele>
        <time>2013-04-30T09:42:28Z</time>
      </trkpt>
      <trkpt lat="50.33368" lon="1.54809">
        <ele>3.98</ele>
        <time>2013-04-30T09:42:30Z</time>
      </trkpt>
      <trkpt lat="50.33367" lon="1.54807">
        <ele>3.98</ele>
        <time>2013-04-30T09:42:31Z</time>
      </trkpt>
      <trkpt lat="50.33365" lon="1.54796">
        <ele>3.5</ele>
        <time>2013-04-30T09:42:39Z</time>
      </trkpt>
      <trkpt lat="50.33357" lon="1.54777">
        <ele>3.5</ele>
        <time>2013-04-30T09:42:55Z</time>
      </trkpt>
      <trkpt lat="50.33348" lon="1.54774">
        <ele>3.02</ele>
        <time>2013-04-30T09:43:08Z</time>
      </trkpt>
      <trkpt lat="50.33333" lon="1.54766">
        <ele>3.02</ele>
        <time>2013-04-30T09:43:23Z</time>
      </trkpt>
      <trkpt lat="50.33323" lon="1.54765">
        <ele>3.02</ele>
        <time>2013-04-30T09:43:32Z</time>
      </trkpt>
      <trkpt lat="50.3331" lon="1.54763">
        <ele>3.02</ele>
        <time>2013-04-30T09:43:44Z</time>
      </trkpt>
      <trkpt lat="50.33302" lon="1.54761">
        <ele>3.02</ele>
        <time>2013-04-30T09:43:51Z</time>
      </trkpt>
      <trkpt lat="50.33296" lon="1.5476">
        <ele>3.02</ele>
        <time>2013-04-30T09:43:57Z</time>
      </trkpt>
      <trkpt lat="50.3328" lon="1.54752">
        <ele>2.54</ele>
        <time>2013-04-30T09:44:11Z</time>
      </trkpt>
      <trkpt lat="50.33274" lon="1.54751">
        <ele>3.02</ele>
        <time>2013-04-30T09:44:17Z</time>
      </trkpt>
      <trkpt lat="50.33256" lon="1.54761">
        <ele>3.02</ele>
        <time>2013-04-30T09:44:34Z</time>
      </trkpt>
      <trkpt lat="50.33236" lon="1.54758">
        <ele>3.02</ele>
        <time>2013-04-30T09:44:51Z</time>
      </trkpt>
      <trkpt lat="50.3322" lon="1.54756">
        <ele>3.02</ele>
        <time>2013-04-30T09:45:05Z</time>
      </trkpt>
      <trkpt lat="50.33202" lon="1.54752">
        <ele>3.02</ele>
        <time>2013-04-30T09:45:21Z</time>
      </trkpt>
      <trkpt lat="50.33182" lon="1.5475">
        <ele>2.54</ele>
        <time>2013-04-30T09:45:38Z</time>
      </trkpt>
      <trkpt lat="50.33164" lon="1.54748">
        <ele>2.54</ele>
        <time>2013-04-30T09:45:54Z</time>
      </trkpt>
      <trkpt lat="50.3315" lon="1.54743">
        <ele>3.02</ele>
        <time>2013-04-30T09:46:10Z</time>
      </trkpt>
      <trkpt lat="50.33146" lon="1.5474">
        <ele>3.02</ele>
        <time>2013-04-30T09:46:25Z</time>
      </trkpt>
      <trkpt lat="50.33126" lon="1.54736">
        <ele>2.54</ele>
        <time>2013-04-30T09:46:41Z</time>
      </trkpt>
      <trkpt lat="50.33106" lon="1.54732">
        <ele>2.54</ele>
        <time>2013-04-30T09:46:58Z</time>
      </trkpt>
      <trkpt lat="50.33086" lon="1.54728">
        <ele>2.54</ele>
        <time>2013-04-30T09:47:15Z</time>
      </trkpt>
      <trkpt lat="50.33068" lon="1.54724">
        <ele>2.54</ele>
        <time>2013-04-30T09:47:32Z</time>
      </trkpt>
      <trkpt lat="50.33065" lon="1.54723">
        <ele>2.54</ele>
        <time>2013-04-30T09:47:34Z</time>
      </trkpt>
      <trkpt lat="50.33047" lon="1.54717">
        <ele>3.02</ele>
        <time>2013-04-30T09:47:52Z</time>
      </trkpt>
      <trkpt lat="50.33029" lon="1.54711">
        <ele>2.54</ele>
        <time>2013-04-30T09:48:08Z</time>
      </trkpt>
      <trkpt lat="50.33009" lon="1.54707">
        <ele>2.54</ele>
        <time>2013-04-30T09:48:25Z</time>
      </trkpt>
      <trkpt lat="50.32992" lon="1.54704">
        <ele>3.02</ele>
        <time>2013-04-30T09:48:42Z</time>
      </trkpt>
      <trkpt lat="50.32973" lon="1.54699">
        <ele>2.54</ele>
        <time>2013-04-30T09:49:02Z</time>
      </trkpt>
      <trkpt lat="50.32951" lon="1.54694">
        <ele>3.02</ele>
        <time>2013-04-30T09:49:21Z</time>
      </trkpt>
      <trkpt lat="50.32932" lon="1.54687">
        <ele>2.54</ele>
        <time>2013-04-30T09:49:38Z</time>
      </trkpt>
      <trkpt lat="50.32915" lon="1.54683">
        <ele>2.54</ele>
        <time>2013-04-30T09:49:53Z</time>
      </trkpt>
      <trkpt lat="50.32895" lon="1.54681">
        <ele>2.54</ele>
        <time>2013-04-30T09:50:12Z</time>
      </trkpt>
      <trkpt lat="50.32869" lon="1.54677">
        <ele>2.06</ele>
        <time>2013-04-30T09:50:35Z</time>
      </trkpt>
      <trkpt lat="50.32841" lon="1.54674">
        <ele>2.54</ele>
        <time>2013-04-30T09:50:58Z</time>
      </trkpt>
      <trkpt lat="50.32815" lon="1.54667">
        <ele>3.02</ele>
        <time>2013-04-30T09:51:20Z</time>
      </trkpt>
      <trkpt lat="50.32791" lon="1.54666">
        <ele>3.02</ele>
        <time>2013-04-30T09:51:41Z</time>
      </trkpt>
      <trkpt lat="50.32781" lon="1.54662">
        <ele>3.02</ele>
        <time>2013-04-30T09:51:50Z</time>
      </trkpt>
      <trkpt lat="50.32776" lon="1.54657">
        <ele>3.5</ele>
        <time>2013-04-30T09:52:03Z</time>
      </trkpt>
      <trkpt lat="50.32752" lon="1.54658">
        <ele>3.02</ele>
        <time>2013-04-30T09:52:22Z</time>
      </trkpt>
      <trkpt lat="50.32718" lon="1.54655">
        <ele>3.02</ele>
        <time>2013-04-30T09:52:50Z</time>
      </trkpt>
      <trkpt lat="50.3269" lon="1.54655">
        <ele>3.98</ele>
        <time>2013-04-30T09:53:16Z</time>
      </trkpt>
      <trkpt lat="50.32673" lon="1.54648">
        <ele>3.5</ele>
        <time>2013-04-30T09:53:37Z</time>
      </trkpt>
      <trkpt lat="50.32671" lon="1.54649">
        <ele>3.5</ele>
        <time>2013-04-30T09:53:39Z</time>
      </trkpt>
      <trkpt lat="50.32644" lon="1.54643">
        <ele>3.98</ele>
        <time>2013-04-30T09:54:04Z</time>
      </trkpt>
      <trkpt lat="50.32618" lon="1.54633">
        <ele>3.5</ele>
        <time>2013-04-30T09:54:30Z</time>
      </trkpt>
      <trkpt lat="50.32587" lon="1.54629">
        <ele>3.5</ele>
        <time>2013-04-30T09:54:55Z</time>
      </trkpt>
      <trkpt lat="50.3256" lon="1.54611">
        <ele>3.98</ele>
        <time>2013-04-30T09:55:21Z</time>
      </trkpt>
      <trkpt lat="50.32546" lon="1.54603">
        <ele>3.98</ele>
        <time>2013-04-30T09:55:34Z</time>
      </trkpt>
      <trkpt lat="50.32517" lon="1.546">
        <ele>3.98</ele>
        <time>2013-04-30T09:56:02Z</time>
      </trkpt>
      <trkpt lat="50.32505" lon="1.54633">
        <ele>6.39</ele>
        <time>2013-04-30T09:56:27Z</time>
      </trkpt>
      <trkpt lat="50.32501" lon="1.54647">
        <ele>8.31</ele>
        <time>2013-04-30T09:56:43Z</time>
      </trkpt>
      <trkpt lat="50.32484" lon="1.54678">
        <ele>9.75</ele>
        <time>2013-04-30T09:57:08Z</time>
      </trkpt>
      <trkpt lat="50.32461" lon="1.54713">
        <ele>11.19</ele>
        <time>2013-04-30T09:57:40Z</time>
      </trkpt>
      <trkpt lat="50.32478" lon="1.54746">
        <ele>11.67</ele>
        <time>2013-04-30T09:58:00Z</time>
      </trkpt>
      <trkpt lat="50.32483" lon="1.54783">
        <ele>12.63</ele>
        <time>2013-04-30T09:58:24Z</time>
      </trkpt>
      <trkpt lat="50.32487" lon="1.54826">
        <ele>11.19</ele>
        <time>2013-04-30T09:58:50Z</time>
      </trkpt>
    </trkseg>
  </trk>
</gpx>